Aérodrome :
LOGIN :

S'inscrire | Disclaimer

   EN    FR    IT 

 










Légende :    VFR   VFR Marginal   IFR   IFR Intensif   IFR Très Intensif
Visi : 
Plafond : 
>= 8 km
>= 3000ft
5 à 8 km
1000 à 3000 ft
1500m à 5 km
500 à 1000 ft
800 à 1500m
200 à 500 ft
< 800m
< 200 ft
Symboles :   Orages  Brouillard  Fortes neiges  Fortes précipitations  Vent > 20 kt
SIGMETs :   Divers  Orages  Givrage  Turbulence  Onde Orograph.  Cendres Volcan.







- Altitude de l'aérodrome : 1363 ft


ETIC - Grafenwohr Army Air Field

DERNIER METAR :
  • 221756Z AUTO 00000KT 1000 R32/0550V0650 BR VV002 00/00 A2982 RMK AO2 SLP124 60000 T00010000 10001 21003 52016 $

METARs EXPIRÉS :
  • 221726Z AUTO 00000KT 1000 R32/0600V0700 BR VV002 00/00 A2981 RMK AO2 SLP121 $
  • 221711Z AUTO 00000KT 1400 R32/0800V0900 BR VV002 00/00 A2981 RMK AO2 SLP121 $
  • 221656Z AUTO 00000KT 1600 R32/0800V0900 BR VV002 00/00 A2980 RMK AO2 FZDZB1558E06 SLP117 T00001001 $
  • 221636Z 00000KT 2200 R32/1100 BR OVC003 00/00 A2979 RMK AO2A FZDZB1558E06 SLP114 $
  • 221621Z 00000KT 2400 R32/1200 BR OVC003 00/00 A2979 RMK AO2A FZDZB1558E06 SLP114 $
  • 221604Z AUTO 00000KT 1800 R32/1500 -FZDZ BR VV003 00/00 A2978 RMK AO2 FZDZB1558 SLP110 $
  • 221602Z AUTO 00000KT 1600 R32/1500VP1500 -FZDZ BR VV003 00/00 A2978 RMK AO2 FZDZB1558 SLP110 $
  • 221541Z AUTO 13003KT 1800 BR OVC004 00/00 A2978 RMK AO2 SLP110 $
  • 221526Z AUTO 00000KT 2000 BR OVC004 00/00 A2977 RMK AO2 SLP107 $

TAF AMD TAF ETIC
Valide du 22 à 15h jusqu'au 23 à 20h UTC


221525Z 2215/2320 VRB06KT 3200 -SHSN BR BKN004 620106 QNH2973INS
TEMPO 2215/2216 1600 -FZRA BKN008 690002
BECMG 2215/2216 VRB06KT 3200 -SHRA BR BKN004 610609 QNH2974INS
TEMPO 2216/2220 1600 -SHRA BKN008
BECMG 2223/2224 28009KT 9000 -SHRA BKN005 610609 QNH2997INS
BECMG 2313/2314 26009KT 9999 NSW BKN010 620305 QNH3020INS TX03/2219Z TN00/2215Z
Pas de NOTAMs connus pour ce terrain.



MET'MAP, la Météo Aéronautique d'un coup d'oeil ! - Copyright ORBIFLY Décembre 2007 - Disclaimer

ORBIFLY MET'MAP TEAM :

Programmation & Développement : Alexandra Zaïnal
Conception & Développement : Baudouin d'Aumeries
Co-Programmation & Développement : Marc-Olivier Méhu
Soutien technique & logistique : Manuel Goepfert

Contact : metmap@orbifly.com




SOURCES & CREDITS :

   NOAA